• Join FlightAware (Why Join?)
  • Login
  • US Flag 
07:53PM EDT


 

Airport Tracker/Info


-or-


 

Live Flight TrackerFlight Track Log ✈ N717EB ✈ 02-May-2013 ✈ KOAK - KAPA

Flight Track Log - Related Links

Times and Time Zones

All times are in EDT time to prevent confusion due to time zone crossing. See the N717EB flight status page for this flight to view local times or setup timezone preferences in your user account.

Time Position Orientation Groundspeed Altitude Reporting Facility
EDT Latitude Longitude Course Direction KTS MPH feet Rate Location/Type
07:23PM 37.8000 -122.3500 77° East 246 283 2,700  Level Northern Cal TRACON
07:24PM 37.8333 -122.4167 302° West 244 281 4,100 1,800 Climbing Northern Cal TRACON
07:25PM 37.9000 -122.4000 11° North 272 313 6,200 2,580 Climbing Northern Cal TRACON
07:26PM 37.9000 -122.3000 90° East 291 335 9,300 2,460 Climbing Northern Cal TRACON
07:27PM 37.9175 -122.2008 77° East 300 345 11,300 2,100 Climbing Oakland Center
07:28PM 37.8478 -121.5238 77° East  Level Estimated
07:28PM 37.9342 -122.0844 80° East 328 377 13,500  Level Oakland Center
07:29PM 37.9503 -121.9642 80° East 343 395 15,700 2,040 Climbing Oakland Center
07:30PM 37.9667 -121.8397 80° East 353 406 17,800 1,980 Climbing Oakland Center
07:31PM 37.9836 -121.7083 81° East 370 426 19,800 1,980 Climbing Oakland Center
07:32PM 38.0061 -121.5453 80° East 388 447 21,900 1,800 Climbing Oakland Center
07:33PM 38.0225 -121.4206 80° East 396 456 23,600 1,560 Climbing Oakland Center
07:34PM 38.0406 -121.2789 81° East 405 466 25,200 1,440 Climbing Oakland Center
07:35PM 38.0592 -121.1314 81° East 422 486 26,600 1,440 Climbing Oakland Center
07:36PM 38.0817 -120.9492 81° East 437 503 28,200 1,680 Climbing Oakland Center
07:37PM 38.1036 -120.7964 80° East 442 509 30,100 1,800 Climbing Oakland Center
07:38PM 38.1231 -120.6453 81° East 438 504 32,000 1,620 Climbing Oakland Center
07:39PM 38.1431 -120.4956 80° East 434 499 33,500 1,380 Climbing Oakland Center
07:40PM 38.1644 -120.3425 80° East 439 505 34,900 1,500 Climbing Oakland Center
07:41PM 38.1836 -120.1903 81° East 440 506 36,600 1,440 Climbing Oakland Center
07:42PM 38.2031 -120.0397 81° East 434 499 37,900 1,020 Climbing Oakland Center
07:43PM 38.2272 -119.8558 80° East 438 504 38,800 480 Climbing Oakland Center
07:44PM 38.2467 -119.6956 81° East 453 521 39,000 60 Climbing Oakland Center
07:45PM 38.2672 -119.5278 81° East 472 543 39,000  Level Oakland Center
07:46PM 38.2856 -119.3706 82° East 486 559 39,000  Level Oakland Center
07:47PM 38.3075 -119.2025 81° East 485 558 39,000 360 Level Oakland Center
07:48PM 38.3311 -118.9997 81° East 485 558 39,800 840 Climbing Oakland Center
07:49PM 38.3442 -118.8361 84° East 472 543 40,800 540 Climbing Oakland Center
07:50PM 38.3536 -118.6697 86° East 474 545 41,000 60 Climbing Oakland Center
07:51PM 38.3642 -118.5025 85° East 476 548 41,000  Level Oakland Center
07:52PM 38.3725 -118.3375 86° East 472 543 41,000  Level Oakland Center
07:53PM 38.3819 -118.1728 86° East 469 540 41,000  Level Oakland Center
07:54PM 38.3897 -118.0119 86° East 472 543 41,000  Level Oakland Center
07:55PM 38.4000 -117.8128 86° East 469 540 41,000  Level Oakland Center
07:56PM 38.4081 -117.6458 86° East 471 542 41,000  Level Oakland Center
07:57PM 38.4153 -117.4786 87° East 469 540 41,000  Level Oakland Center
07:58PM 38.4214 -117.3439 87° East 469 540 41,000  Level Salt Lake Center
07:59PM 38.4281 -117.1756 87° East 469 540 41,000  Level Salt Lake Center
08:01PM 38.4386 -116.9731 86° East 471 542 41,000  Level Oakland Center
08:02PM 38.4458 -116.8042 87° East 473 544 41,000  Level Oakland Center
08:03PM 38.4525 -116.6369 87° East 472 543 41,000  Level Oakland Center
08:03PM 38.4569 -116.5017 88° East 474 545 41,000  Level Salt Lake Center
08:05PM 38.4656 -116.3008 87° East 472 543 41,000  Level Oakland Center
08:06PM 38.4714 -116.1328 87° East 474 545 41,000  Level Oakland Center
08:07PM 38.4772 -115.9639 87° East 476 548 41,000  Level Salt Lake Center
08:08PM 38.4828 -115.7956 88° East 476 548 41,000  Level Salt Lake Center
08:09PM 38.4875 -115.6256 88° East 478 550 41,000  Level Salt Lake Center
08:10PM 38.4933 -115.4572 87° East 476 548 41,000  Level Salt Lake Center
08:11PM 38.4975 -115.2878 88° East 479 551 41,000  Level Salt Lake Center
08:12PM 38.5036 -115.1164 87° East 483 556 41,000  Level Salt Lake Center
08:13PM 38.5075 -114.9464 88° East 482 555 41,000  Level Salt Lake Center
08:14PM 38.5133 -114.7425 88° East 480 552 41,000  Level Salt Lake Center
08:15PM 38.5158 -114.5728 89° East 479 551 41,000  Level Salt Lake Center
08:16PM 38.5203 -114.4014 88° East 483 556 41,000  Level Salt Lake Center
08:17PM 38.5253 -114.2286 88° East 487 560 41,000  Level Salt Lake Center
08:18PM 38.5275 -114.0581 89° East 482 555 41,000  Level Salt Lake Center
08:19PM 38.5317 -113.8869 88° East 483 556 41,000  Level Salt Lake Center
08:20PM 38.5339 -113.7158 89° East 481 554 41,000  Level Salt Lake Center
08:21PM 38.5358 -113.5114 89° East 478 550 41,000  Level Salt Lake Center
08:22PM 38.5389 -113.3403 89° East 480 552 41,000  Level Salt Lake Center
08:23PM 38.5411 -113.1667 89° East 486 559 41,000  Level Salt Lake Center
08:24PM 38.5419 -112.9958 90° East 483 556 41,000  Level Salt Lake Center
08:25PM 38.5439 -112.8264 89° East 479 551 41,000  Level Salt Lake Center
08:26PM 38.5447 -112.6542 90° East 481 554 41,000  Level Salt Lake Center
08:27PM 38.5458 -112.4847 89° East 478 550 41,000  Level Salt Lake Center
08:28PM 38.5469 -112.3150 89° East 478 550 41,000  Level Salt Lake Center
08:29PM 38.5467 -112.1103 90° East 479 551 41,000  Level Salt Lake Center
08:30PM 38.5464 -111.9389 90° East 481 554 41,000  Level Salt Lake Center
08:31PM 38.5464 -111.7689 90° East 479 551 41,000  Level Salt Lake Center
08:32PM 38.5461 -111.5986 90° East 480 552 41,000  Level Salt Lake Center
08:33PM 38.5478 -111.4308 89° East 476 548 41,000  Level Salt Lake Center
08:34PM 38.5469 -111.2611 90° East 478 550 41,000  Level Salt Lake Center
08:35PM 38.5461 -111.0925 90° East 476 548 41,000  Level Salt Lake Center
08:36PM 38.5439 -110.8911 91° East 477 549 41,000  Level Salt Lake Center
08:37PM 38.5436 -110.7292 90° East 478 550 41,000  Level Salt Lake Center
08:38PM 38.5411 -110.5392 91° East 480 552 41,000  Level Salt Lake Center
08:39PM 38.5375 -110.4556 93° East 477 549 41,000  Level Denver Center
08:40PM 38.5344 -110.2917 91° East 482 555 41,000  Level Denver Center
08:41PM 38.5353 -110.1850 89° East 482 555 41,000  Level Salt Lake Center
08:41PM 38.5325 -110.1011 92° East 480 552 41,000  Level Denver Center
08:42PM 38.5294 -109.9364 91° East 481 554 41,000  Level Denver Center
08:43PM 38.5253 -109.7442 92° East 486 559 41,000  Level Denver Center
08:44PM 38.5231 -109.5847 91° East 477 549 41,000  Level Denver Center
08:45PM 38.5194 -109.3950 91° East 478 550 41,000  Level Denver Center
08:46PM 38.5164 -109.2311 91° East 480 552 41,000  Level Denver Center
08:47PM 38.5111 -109.0408 92° East 482 555 41,000  Level Denver Center
08:48PM 38.5075 -108.8792 92° East 478 550 41,000  Level Denver Center
08:49PM 38.5022 -108.6892 92° East 482 555 41,000  Level Denver Center
08:50PM 38.4981 -108.5278 92° East 479 551 41,000  Level Denver Center
08:51PM 38.4917 -108.3406 92° East 475 547 41,000  Level Denver Center
08:52PM 38.4869 -108.1792 92° East 477 549 41,000  Level Denver Center
08:53PM 38.4808 -107.9947 92° East 469 540 41,000 -300 Level Denver Center
08:54PM 38.4761 -107.8367 92° East 468 539 40,500 -960 Descending Denver Center
08:56PM 38.4694 -107.6797 93° East 465 535 39,100 -1,320 Descending Denver Center
08:57PM 38.4633 -107.4969 92° East 464 534 37,800 -840 Descending Denver Center
08:58PM 38.4572 -107.3392 93° East 468 539 37,400 -420 Descending Denver Center
08:59PM 38.4572 -107.1717 90° East 472 543 37,000 -180 Descending Denver Center
09:00PM 38.5011 -107.0208 70° East 457 526 37,100  Climbing Denver Center
09:01PM 38.5475 -106.8744 68° East 446 513 37,000 -900 Descending Denver Center
09:02PM 38.6008 -106.7036 68° East 437 503 35,300 -1,740 Descending Denver Center
09:03PM 38.6472 -106.5556 68° East 449 517 33,500 -1,800 Descending Denver Center
09:04PM 38.6917 -106.4119 68° East 439 505 31,600 -1,980 Descending Denver Center
09:05PM 38.7356 -106.2675 69° East 438 504 29,500 -1,800 Descending Denver Center
09:06PM 38.7842 -106.1094 68° East 432 497 27,900 -1,800 Descending Denver Center
09:07PM 38.8300 -105.9575 69° East 429 494 25,900 -1,860 Descending Denver Center
09:08PM 38.8700 -105.8217 69° East 426 490 24,100 -1,980 Descending Denver Center
09:09PM 38.9375 -105.6894 57° Northeast 400 460 21,900 -1,860 Descending Denver Center
09:10PM 38.9919 -105.5797 57° Northeast 384 442 20,300 -1,680 Descending Denver Center
09:11PM 39.0525 -105.4611 57° Northeast 363 418 18,500 -1,500 Descending Denver Center
09:12PM 39.1053 -105.3564 57° Northeast 349 402 17,300 -1,320 Descending Denver Center
09:13PM 39.1567 -105.2558 57° Northeast 337 388 15,800 -1,440 Descending Denver Center
09:14PM 39.2050 -105.1789 51° Northeast 277 319 14,400 -1,680 Descending Denver Center
09:15PM 39.2553 -105.0939 53° Northeast 279 321 12,400 -1,500 Descending Denver Center
09:16PM 39.3131 -105.0281 41° Northeast 278 320 11,300 -900 Descending Denver Center
09:17PM 39.3689 -104.9547 45° Northeast 268 308 10,600 -1,320 Descending Denver Center
09:18PM 39.4175 -104.8922 45° Northeast 251 289 8,600 -1,320 Descending Denver Center
09:19PM 39.4678 -104.8453 36° Northeast 196 226 7,900 -840 Descending Denver Center
09:20PM 39.5100 -104.8478 357° North 149 171 6,900 -900 Descending Denver Center
09:21PM 39.5486 -104.8492 358° North 137 158 6,100 -540 Descending Denver Center
09:22PM 39.5719 -104.8492 360° North 111 128 5,800 -300 Descending Denver Center
09:24PM 39.5701 -104.8493 North  Level Estimated
09:31PM 39.5701 -104.8493 North  Level Estimated
09:32PM 39.5701 -104.8493 North  Level Estimated